Time;durP1;ratioP1;P1;durP2;ratioP2;P2;SDS_P1;SDS_P2;PMS_P1;PMS_P2;Temp;Humidity;BMP_temperature;BMP_pressure;BME280_temperature;BME280_humidity;BME280_pressure;Samples;Min_cycle;Max_cycle;Signal;HPM_P1;HPM_P2
2021/05/04 00:00:54;;;;;;;4.25;1.88;;;28.70;25.20;;;;;;5070458;28;20049;-71
2021/05/04 00:03:20;;;;;;;7.40;2.20;;;28.50;25.40;;;;;;5076319;28;20024;-71
2021/05/04 00:05:47;;;;;;;18.70;2.88;;;28.20;25.70;;;;;;5086451;28;20295;-71
2021/05/04 00:08:13;;;;;;;7.07;2.10;;;28.30;25.80;;;;;;5071957;28;20052;-71
2021/05/04 00:10:39;;;;;;;6.70;1.83;;;28.40;25.50;;;;;;5070114;28;20036;-70
2021/05/04 00:13:06;;;;;;;6.90;1.70;;;28.30;25.90;;;;;;5078124;28;20017;-70
2021/05/04 00:15:32;;;;;;;7.15;2.13;;;28.50;24.90;;;;;;5095601;28;20040;-70
2021/05/04 00:17:59;;;;;;;8.98;1.77;;;28.30;25.30;;;;;;5087685;28;20020;-71
2021/05/04 00:20:25;;;;;;;10.13;2.60;;;28.40;25.10;;;;;;5072283;28;20036;-71
2021/05/04 00:22:51;;;;;;;11.13;2.20;;;28.50;25.10;;;;;;5075460;28;20016;-71
2021/05/04 00:25:19;;;;;;;8.30;2.00;;;28.60;24.90;;;;;;5074670;28;20032;-71
2021/05/04 00:27:45;;;;;;;10.65;2.55;;;28.40;25.10;;;;;;5076118;28;20044;-70
2021/05/04 00:30:12;;;;;;;9.25;1.58;;;28.30;25.30;;;;;;5081387;28;20044;-71
2021/05/04 00:32:39;;;;;;;8.48;2.00;;;28.60;25.20;;;;;;5070121;28;20078;-70
2021/05/04 00:35:05;;;;;;;8.07;1.73;;;28.40;25.20;;;;;;5069189;28;20119;-71
2021/05/04 00:37:32;;;;;;;8.48;2.75;;;28.50;24.90;;;;;;5074839;28;20071;-72
2021/05/04 00:39:58;;;;;;;7.07;2.42;;;28.20;25.50;;;;;;5072204;28;20056;-71
2021/05/04 00:42:25;;;;;;;7.38;2.28;;;28.30;25.40;;;;;;5073175;28;20024;-72
2021/05/04 00:44:53;;;;;;;9.77;2.22;;;28.30;25.90;;;;;;5077419;28;20066;-71
2021/05/04 00:47:19;;;;;;;9.18;2.47;;;28.30;25.40;;;;;;5068857;28;20025;-71
2021/05/04 00:49:45;;;;;;;9.10;2.33;;;28.10;26.20;;;;;;5068606;28;20084;-71
2021/05/04 00:52:13;;;;;;;8.30;2.20;;;28.30;26.00;;;;;;5074183;28;20366;-71
2021/05/04 00:54:40;;;;;;;12.50;3.00;;;28.30;25.80;;;;;;5070057;28;20028;-71
2021/05/04 00:57:08;;;;;;;7.15;2.17;;;28.30;26.10;;;;;;5075787;28;20024;-71
2021/05/04 00:59:37;;;;;;;8.45;1.33;;;28.30;26.10;;;;;;5075538;28;20347;-71
2021/05/04 01:02:03;;;;;;;11.27;1.85;;;28.30;26.30;;;;;;5088391;28;20017;-71
2021/05/04 01:04:31;;;;;;;8.77;2.05;;;28.50;26.10;;;;;;5073395;28;20020;-71
2021/05/04 01:07:00;;;;;;;11.27;2.53;;;28.60;25.80;;;;;;5075748;28;20430;-72
2021/05/04 01:09:26;;;;;;;9.55;2.17;;;28.40;25.80;;;;;;5068958;28;20067;-71
2021/05/04 01:12:10;;;;;;;5.88;2.78;;;28.40;25.90;;;;;;5057827;28;20021;-71
2021/05/04 01:14:36;;;;;;;8.60;1.90;;;28.50;26.10;;;;;;5069830;28;20676;-72
2021/05/04 01:17:02;;;;;;;10.63;2.40;;;28.30;26.30;;;;;;5074576;28;20350;-70
2021/05/04 01:19:29;;;;;;;5.88;1.77;;;28.40;26.30;;;;;;5083917;28;20036;-71
2021/05/04 01:21:55;;;;;;;10.02;2.88;;;28.40;26.40;;;;;;5065283;28;20021;-70
2021/05/04 01:24:22;;;;;;;12.75;2.47;;;28.20;26.60;;;;;;5069388;28;20027;-70
2021/05/04 01:26:48;;;;;;;12.07;2.63;;;28.30;26.80;;;;;;5069798;28;20032;-70
2021/05/04 01:29:15;;;;;;;10.10;1.90;;;28.20;26.90;;;;;;5072082;28;20089;-70
2021/05/04 01:31:43;;;;;;;10.43;2.65;;;28.20;26.90;;;;;;5076103;28;20024;-70
2021/05/04 01:34:12;;;;;;;7.07;2.08;;;28.30;26.70;;;;;;5067267;28;20107;-70
2021/05/04 01:36:38;;;;;;;13.65;3.15;;;28.10;26.60;;;;;;5068003;28;20021;-71
2021/05/04 01:39:07;;;;;;;10.73;3.72;;;28.00;27.40;;;;;;5070344;28;20454;-71
2021/05/04 01:41:34;;;;;;;17.63;3.30;;;27.90;27.90;;;;;;5062946;28;20059;-69
2021/05/04 01:44:01;;;;;;;12.48;2.25;;;27.90;27.80;;;;;;5064421;28;20021;-69
2021/05/04 01:46:33;;;;;;;9.77;2.42;;;27.70;28.20;;;;;;5078973;28;20039;-69
2021/05/04 01:49:07;;;;;;;7.28;2.45;;;27.70;27.60;;;;;;5072586;28;20028;-69
2021/05/04 01:51:37;;;;;;;11.13;2.80;;;27.50;27.70;;;;;;5076772;28;20056;-69
2021/05/04 01:54:03;;;;;;;10.35;3.88;;;27.50;27.70;;;;;;5073303;28;20024;-69
2021/05/04 01:56:30;;;;;;;10.45;2.53;;;27.30;27.90;;;;;;5079991;28;20473;-69
2021/05/04 01:59:01;;;;;;;15.43;3.70;;;27.30;28.30;;;;;;5083482;28;20054;-70
2021/05/04 02:01:28;;;;;;;8.57;2.73;;;27.10;28.00;;;;;;5091149;28;20024;-69
2021/05/04 02:03:55;;;;;;;14.10;4.18;;;27.00;28.30;;;;;;5078487;28;20025;-71
2021/05/04 02:06:21;;;;;;;6.07;1.85;;;26.90;28.60;;;;;;5069352;28;20035;-69
2021/05/04 02:08:48;;;;;;;13.93;2.95;;;26.90;28.80;;;;;;5062550;28;20028;-69
2021/05/04 02:11:14;;;;;;;9.65;2.78;;;26.70;28.90;;;;;;5075842;28;20024;-69
2021/05/04 02:13:41;;;;;;;10.85;3.20;;;26.50;29.10;;;;;;5075464;28;20040;-69
2021/05/04 02:16:07;;;;;;;16.58;3.10;;;26.20;29.40;;;;;;5073592;28;20024;-69
2021/05/04 02:18:34;;;;;;;15.63;3.63;;;26.20;29.40;;;;;;5064127;28;20398;-69
2021/05/04 02:21:00;;;;;;;12.70;2.78;;;26.00;30.00;;;;;;5071211;28;20449;-69
2021/05/04 02:23:26;;;;;;;11.05;2.90;;;25.80;30.00;;;;;;5073345;28;20111;-68
2021/05/04 02:25:53;;;;;;;11.93;3.35;;;25.80;30.10;;;;;;5073168;28;20035;-68
2021/05/04 02:28:20;;;;;;;12.48;3.88;;;25.60;30.20;;;;;;5078773;28;20024;-69
2021/05/04 02:30:46;;;;;;;11.10;3.08;;;25.70;30.40;;;;;;5071915;28;20103;-69
2021/05/04 02:33:12;;;;;;;13.60;2.80;;;25.50;30.20;;;;;;5068148;28;20054;-69
2021/05/04 02:35:39;;;;;;;15.80;5.03;;;25.20;30.70;;;;;;5067976;28;20029;-69
2021/05/04 02:38:05;;;;;;;16.30;3.67;;;25.10;30.30;;;;;;5068657;28;20021;-69
2021/05/04 02:40:33;;;;;;;21.85;4.75;;;25.10;30.60;;;;;;5088421;28;20032;-69
2021/05/04 02:42:59;;;;;;;12.18;3.45;;;25.00;30.70;;;;;;5082480;28;20062;-69
2021/05/04 02:45:26;;;;;;;23.70;5.55;;;25.00;30.90;;;;;;5069203;28;20047;-70
2021/05/04 02:47:52;;;;;;;12.18;4.35;;;24.80;30.70;;;;;;5059691;28;20139;-70
2021/05/04 02:50:18;;;;;;;12.98;3.65;;;24.60;31.20;;;;;;5067159;28;20352;-70
2021/05/04 02:52:45;;;;;;;18.88;6.90;;;24.50;31.40;;;;;;5068744;28;21655;-70
2021/05/04 02:55:13;;;;;;;16.83;5.45;;;24.40;31.60;;;;;;5069658;28;20020;-71
2021/05/04 02:57:40;;;;;;;13.45;5.38;;;24.30;31.30;;;;;;5069346;28;20020;-71
2021/05/04 03:00:07;;;;;;;14.45;4.63;;;24.10;31.70;;;;;;5070301;28;20155;-70
2021/05/04 03:02:33;;;;;;;17.90;3.85;;;24.00;32.30;;;;;;5076315;28;20466;-71
2021/05/04 03:05:00;;;;;;;13.45;3.78;;;23.80;32.30;;;;;;5071630;28;20071;-71
2021/05/04 03:07:26;;;;;;;16.25;3.85;;;23.40;32.90;;;;;;5073531;28;20039;-70
2021/05/04 03:09:52;;;;;;;13.73;3.78;;;23.10;32.50;;;;;;5068463;28;20458;-70
2021/05/04 03:12:19;;;;;;;17.50;3.47;;;23.00;33.40;;;;;;5078925;28;20512;-69
2021/05/04 03:14:45;;;;;;;13.70;4.15;;;22.70;33.10;;;;;;5074966;28;20450;-70
2021/05/04 03:17:11;;;;;;;12.63;3.88;;;22.70;33.70;;;;;;5073011;28;20354;-69
2021/05/04 03:19:38;;;;;;;16.90;3.58;;;22.50;34.30;;;;;;5062292;28;20060;-74
2021/05/04 03:22:04;;;;;;;14.50;3.10;;;22.20;34.90;;;;;;5061762;28;20023;-72
2021/05/04 03:24:30;;;;;;;14.52;3.20;;;22.00;35.90;;;;;;5062811;28;20703;-74
2021/05/04 03:26:57;;;;;;;15.68;5.63;;;21.90;36.20;;;;;;5066666;28;20105;-72
2021/05/04 03:29:23;;;;;;;13.35;3.33;;;21.90;35.40;;;;;;5088498;28;20457;-74
2021/05/04 03:31:50;;;;;;;13.48;3.47;;;22.20;34.70;;;;;;5079431;28;20016;-74
2021/05/04 03:34:16;;;;;;;14.52;4.93;;;22.20;34.80;;;;;;5072616;28;20029;-74
2021/05/04 03:36:42;;;;;;;12.32;4.18;;;22.10;35.10;;;;;;5072049;28;20032;-74
2021/05/04 03:39:09;;;;;;;13.77;3.05;;;22.10;34.80;;;;;;5081201;28;20031;-72
2021/05/04 03:41:35;;;;;;;21.90;4.10;;;22.40;34.40;;;;;;5076764;28;20074;-76
2021/05/04 03:44:02;;;;;;;15.85;5.05;;;22.40;34.80;;;;;;5074163;28;20024;-75
2021/05/04 03:46:28;;;;;;;18.88;4.35;;;22.30;34.60;;;;;;5070075;28;20024;-73
2021/05/04 03:48:55;;;;;;;14.63;3.85;;;22.20;35.10;;;;;;5063673;28;21639;-72
2021/05/04 03:51:21;;;;;;;11.23;3.33;;;21.90;35.90;;;;;;5071051;28;20539;-73
2021/05/04 03:53:47;;;;;;;16.02;4.68;;;21.70;36.80;;;;;;5067057;28;20104;-72
2021/05/04 03:56:14;;;;;;;16.02;4.65;;;21.60;36.40;;;;;;5093353;28;20039;-73
2021/05/04 03:58:40;;;;;;;22.73;4.85;;;21.50;36.00;;;;;;5095738;28;20092;-73
2021/05/04 04:01:07;;;;;;;19.35;5.10;;;21.70;37.00;;;;;;5080795;28;20044;-72
2021/05/04 04:03:33;;;;;;;24.45;5.63;;;21.60;37.10;;;;;;5076254;28;20025;-72
2021/05/04 04:05:59;;;;;;;20.55;5.43;;;21.50;36.90;;;;;;5079522;28;20284;-71
2021/05/04 04:08:26;;;;;;;16.95;4.68;;;21.50;37.30;;;;;;5070284;28;20032;-72
2021/05/04 04:10:52;;;;;;;22.35;6.80;;;21.10;37.20;;;;;;5074700;28;20073;-72
2021/05/04 04:13:19;;;;;;;26.85;4.88;;;21.00;37.90;;;;;;5066810;28;20048;-71
2021/05/04 04:15:45;;;;;;;17.05;3.85;;;20.90;37.40;;;;;;5072479;28;20025;-72
2021/05/04 04:18:12;;;;;;;18.52;4.45;;;20.70;37.50;;;;;;5079412;28;20128;-72
2021/05/04 04:20:48;;;;;;;;;;;;;;;;;;;;;
2021/05/04 04:23:18;;;;;;;18.52;4.13;;;20.80;38.80;;;;;;5086296;28;20037;-72
2021/05/04 04:25:47;;;;;;;17.15;3.35;;;20.80;38.10;;;;;;5072514;28;20032;-74
2021/05/04 04:28:16;;;;;;;20.30;5.00;;;20.40;38.50;;;;;;5079156;28;20047;-73
2021/05/04 04:30:42;;;;;;;19.55;5.47;;;20.50;38.60;;;;;;5077912;28;20034;-73
2021/05/04 04:33:09;;;;;;;18.52;6.25;;;20.30;38.60;;;;;;5094345;28;20428;-74
2021/05/04 04:35:38;;;;;;;24.65;5.10;;;20.40;38.40;;;;;;5076239;28;20032;-73
2021/05/04 04:38:04;;;;;;;21.50;4.00;;;20.20;38.40;;;;;;5077189;28;20081;-73
2021/05/04 04:40:31;;;;;;;20.77;4.65;;;20.20;38.10;;;;;;5076651;28;20036;-74
2021/05/04 04:42:57;;;;;;;18.90;4.10;;;20.10;38.90;;;;;;5081296;28;20028;-75
2021/05/04 04:45:24;;;;;;;16.13;5.15;;;20.00;39.30;;;;;;5097258;28;20024;-75
2021/05/04 04:47:50;;;;;;;24.25;5.20;;;20.20;39.10;;;;;;5080391;28;20033;-74
2021/05/04 04:50:22;;;;;;;26.45;5.25;;;20.20;39.30;;;;;;5077277;28;20032;-73
2021/05/04 04:52:48;;;;;;;33.65;8.45;;;20.10;39.00;;;;;;5076268;28;20043;-73
2021/05/04 04:55:14;;;;;;;21.83;5.18;;;20.00;39.80;;;;;;5079674;28;20450;-73
2021/05/04 04:57:41;;;;;;;17.92;4.63;;;20.00;39.00;;;;;;5075283;28;20090;-74
2021/05/04 05:00:08;;;;;;;22.23;5.18;;;20.00;40.00;;;;;;5075718;28;20020;-74
2021/05/04 05:02:34;;;;;;;17.80;5.80;;;20.10;40.80;;;;;;5069235;28;20087;-73
2021/05/04 05:05:00;;;;;;;17.77;4.70;;;20.10;40.20;;;;;;5071065;28;20028;-73
2021/05/04 05:07:27;;;;;;;23.13;6.20;;;19.80;40.20;;;;;;5065919;28;20393;-73
2021/05/04 05:09:53;;;;;;;17.05;4.82;;;19.70;39.70;;;;;;5068070;28;20025;-73
2021/05/04 05:12:19;;;;;;;26.33;8.63;;;19.70;40.50;;;;;;5074257;28;20029;-73
2021/05/04 05:14:46;;;;;;;15.43;4.13;;;19.70;40.70;;;;;;5069527;28;20040;-73
2021/05/04 05:17:12;;;;;;;26.65;6.30;;;19.70;39.90;;;;;;5067697;28;20095;-73
2021/05/04 05:19:39;;;;;;;18.92;4.18;;;19.70;39.60;;;;;;5065922;28;20028;-74
2021/05/04 05:22:06;;;;;;;24.92;5.35;;;19.70;40.40;;;;;;5086277;28;20447;-73
2021/05/04 05:24:34;;;;;;;21.02;4.78;;;19.80;40.40;;;;;;5071822;28;20032;-72
2021/05/04 05:27:02;;;;;;;24.88;6.13;;;19.60;41.00;;;;;;5073186;28;20027;-73
2021/05/04 05:29:34;;;;;;;34.40;7.30;;;19.60;41.40;;;;;;5075652;28;20123;-73
2021/05/04 05:32:01;;;;;;;20.30;6.03;;;19.50;41.50;;;;;;5058580;28;20370;-73
2021/05/04 05:34:28;;;;;;;23.80;4.53;;;19.50;41.10;;;;;;5067667;28;20466;-69
2021/05/04 05:36:55;;;;;;;19.33;4.55;;;19.50;41.30;;;;;;5065081;28;20024;-69
2021/05/04 05:39:23;;;;;;;26.90;5.25;;;19.50;42.60;;;;;;5074272;28;20139;-69
2021/05/04 05:41:49;;;;;;;21.58;4.38;;;19.50;41.90;;;;;;5076659;28;20036;-69
2021/05/04 05:44:16;;;;;;;17.80;4.35;;;19.20;41.60;;;;;;5075539;28;20405;-69
2021/05/04 05:46:42;;;;;;;27.90;6.85;;;19.10;41.20;;;;;;5069382;28;20024;-69
2021/05/04 05:49:10;;;;;;;21.33;5.65;;;19.10;42.10;;;;;;5074695;28;20104;-69
2021/05/04 05:51:38;;;;;;;24.75;4.32;;;19.20;42.80;;;;;;5071485;28;20029;-69
2021/05/04 05:54:05;;;;;;;20.58;4.90;;;19.00;41.70;;;;;;5073699;28;20395;-69
2021/05/04 05:56:31;;;;;;;24.90;6.50;;;19.00;42.30;;;;;;5069078;28;20097;-69
2021/05/04 05:58:58;;;;;;;24.83;4.88;;;19.10;41.80;;;;;;5074702;28;20063;-69
2021/05/04 06:01:24;;;;;;;23.55;6.13;;;19.20;43.00;;;;;;5072839;28;20150;-69
2021/05/04 06:03:51;;;;;;;25.55;5.20;;;19.10;42.40;;;;;;5082371;28;20028;-69
2021/05/04 06:06:18;;;;;;;21.67;4.72;;;19.00;41.80;;;;;;5079517;28;20356;-69
2021/05/04 06:08:45;;;;;;;20.75;5.28;;;18.80;42.60;;;;;;5073762;28;20454;-69
2021/05/04 06:11:11;;;;;;;18.80;4.50;;;18.70;43.50;;;;;;5073311;28;20447;-69
2021/05/04 06:13:38;;;;;;;26.40;6.93;;;18.70;42.30;;;;;;5074216;28;20039;-69
2021/05/04 06:16:05;;;;;;;21.42;5.18;;;18.80;42.40;;;;;;5072234;28;20024;-69
2021/05/04 06:18:32;;;;;;;27.25;5.00;;;18.80;42.10;;;;;;5075720;28;20032;-69
2021/05/04 06:20:58;;;;;;;22.77;6.75;;;18.80;42.80;;;;;;5088320;28;20070;-69
2021/05/04 06:23:25;;;;;;;19.40;5.57;;;18.90;42.70;;;;;;5094368;28;20028;-69
2021/05/04 06:25:51;;;;;;;22.10;5.32;;;18.80;43.20;;;;;;5085651;28;20032;-69
2021/05/04 06:28:18;;;;;;;17.08;6.35;;;18.70;42.10;;;;;;5073820;28;20039;-69
2021/05/04 06:30:44;;;;;;;21.33;5.43;;;18.70;42.80;;;;;;5074919;28;20032;-71
2021/05/04 06:33:15;;;;;;;23.42;5.72;;;18.60;42.30;;;;;;5068600;28;20037;-69
2021/05/04 06:35:43;;;;;;;26.77;7.03;;;18.70;42.80;;;;;;5072715;28;20646;-69
2021/05/04 06:38:14;;;;;;;24.13;4.40;;;18.60;43.10;;;;;;5071621;28;20029;-69
2021/05/04 06:40:41;;;;;;;26.27;6.78;;;18.80;43.70;;;;;;5071177;28;20035;-69
2021/05/04 06:43:08;;;;;;;22.02;5.07;;;18.70;43.30;;;;;;5070910;28;20167;-69
2021/05/04 06:45:34;;;;;;;22.58;6.88;;;18.70;43.80;;;;;;5073133;28;20052;-69
2021/05/04 06:48:01;;;;;;;21.95;4.85;;;18.80;43.70;;;;;;5069867;28;20044;-69
2021/05/04 06:50:28;;;;;;;18.33;4.57;;;18.50;44.40;;;;;;5069983;28;20021;-69
2021/05/04 06:52:54;;;;;;;22.80;6.38;;;18.60;43.40;;;;;;5076187;28;20032;-69
2021/05/04 06:55:21;;;;;;;14.68;3.80;;;18.60;43.50;;;;;;5070902;28;20025;-69
2021/05/04 06:57:48;;;;;;;20.00;5.80;;;18.60;43.70;;;;;;5072912;28;20032;-69
2021/05/04 07:00:15;;;;;;;18.98;4.53;;;18.60;44.60;;;;;;5072497;28;20021;-68
2021/05/04 07:02:42;;;;;;;21.88;4.18;;;18.50;44.10;;;;;;5064935;28;20036;-69
2021/05/04 07:05:10;;;;;;;21.63;4.78;;;18.40;43.00;;;;;;5071056;28;20047;-69
2021/05/04 07:07:36;;;;;;;21.02;4.95;;;18.50;43.40;;;;;;5076865;28;20028;-69
2021/05/04 07:10:04;;;;;;;26.38;5.72;;;18.40;44.20;;;;;;5072706;28;20115;-69
2021/05/04 07:12:30;;;;;;;20.95;4.55;;;18.40;45.50;;;;;;5074508;28;20040;-69
2021/05/04 07:14:57;;;;;;;16.13;4.55;;;18.30;44.70;;;;;;5075028;28;20033;-69
2021/05/04 07:17:25;;;;;;;17.02;4.78;;;18.30;44.90;;;;;;5072599;28;20069;-71
2021/05/04 07:19:54;;;;;;;26.05;5.18;;;18.20;45.00;;;;;;5073264;28;20446;-69
2021/05/04 07:22:23;;;;;;;23.65;5.70;;;18.20;44.00;;;;;;5070988;28;20036;-68
2021/05/04 07:24:50;;;;;;;23.52;5.05;;;18.20;43.70;;;;;;5072865;28;20044;-68
2021/05/04 07:27:16;;;;;;;27.88;6.50;;;18.20;44.10;;;;;;5072137;28;20028;-68
2021/05/04 07:29:43;;;;;;;21.88;4.80;;;18.20;43.90;;;;;;5071532;28;20035;-68
2021/05/04 07:32:10;;;;;;;19.25;4.25;;;18.20;45.00;;;;;;5066344;28;20127;-69
2021/05/04 07:34:37;;;;;;;20.13;4.85;;;18.10;45.10;;;;;;5075577;28;20109;-68
2021/05/04 07:37:03;;;;;;;16.92;5.25;;;18.00;45.10;;;;;;5074878;28;20035;-68
2021/05/04 07:39:31;;;;;;;14.63;3.95;;;18.10;45.40;;;;;;5076072;28;20021;-68
2021/05/04 07:41:57;;;;;;;16.55;4.22;;;18.10;45.20;;;;;;5075777;28;20023;-68
2021/05/04 07:44:24;;;;;;;17.80;3.90;;;18.00;45.20;;;;;;5076518;28;20025;-69
2021/05/04 07:46:50;;;;;;;10.43;3.38;;;18.00;45.20;;;;;;5082224;28;20032;-68
2021/05/04 07:49:30;;;;;;;9.95;4.00;;;18.00;45.10;;;;;;5075706;28;20029;-68
2021/05/04 07:51:57;;;;;;;14.10;3.60;;;18.00;45.30;;;;;;5087936;28;20123;-68
2021/05/04 07:54:24;;;;;;;16.70;5.20;;;18.00;45.00;;;;;;5075467;28;20055;-69
2021/05/04 07:56:50;;;;;;;16.83;5.22;;;17.90;44.90;;;;;;5076212;28;20679;-68
2021/05/04 07:59:17;;;;;;;13.27;3.28;;;17.90;45.10;;;;;;5075809;28;20024;-68
2021/05/04 08:01:43;;;;;;;12.93;3.20;;;17.90;45.30;;;;;;5073940;28;20023;-68
2021/05/04 08:04:10;;;;;;;12.50;3.85;;;17.80;45.40;;;;;;5070483;28;20047;-68
2021/05/04 08:06:37;;;;;;;17.27;4.53;;;17.70;45.10;;;;;;5077759;28;20028;-68
2021/05/04 08:09:03;;;;;;;27.92;5.38;;;17.70;46.00;;;;;;5075704;28;20023;-68
2021/05/04 08:11:30;;;;;;;27.25;5.22;;;17.60;45.60;;;;;;5077045;28;20082;-69
2021/05/04 08:13:56;;;;;;;16.50;3.95;;;17.60;45.40;;;;;;5085387;28;20028;-68
2021/05/04 08:16:23;;;;;;;17.00;4.95;;;17.50;46.40;;;;;;5074731;28;20059;-69
2021/05/04 08:18:52;;;;;;;14.23;4.20;;;17.50;45.10;;;;;;5082978;28;20021;-68
2021/05/04 08:21:20;;;;;;;16.50;3.60;;;17.50;45.50;;;;;;5076065;28;20017;-68
2021/05/04 08:23:47;;;;;;;15.52;4.47;;;17.40;45.90;;;;;;5083348;28;20024;-68
2021/05/04 08:26:14;;;;;;;9.82;2.95;;;17.40;45.70;;;;;;5072761;28;20077;-68
2021/05/04 08:28:42;;;;;;;15.77;5.22;;;17.40;45.60;;;;;;5069556;28;20055;-68
2021/05/04 08:31:08;;;;;;;15.75;5.53;;;17.40;45.90;;;;;;5075270;28;20028;-68
2021/05/04 08:33:34;;;;;;;15.32;3.20;;;17.30;46.20;;;;;;5076341;28;20035;-68
2021/05/04 08:36:01;;;;;;;15.38;3.90;;;17.30;45.60;;;;;;5075620;28;20025;-68
2021/05/04 08:38:27;;;;;;;12.57;4.28;;;17.20;45.90;;;;;;5072894;28;20035;-68
2021/05/04 08:40:54;;;;;;;10.98;3.90;;;17.20;45.70;;;;;;5074189;28;20031;-68
2021/05/04 08:43:25;;;;;;;11.18;2.97;;;17.10;45.70;;;;;;5072433;28;20021;-68
2021/05/04 08:45:59;;;;;;;16.80;3.33;;;17.10;45.90;;;;;;5061421;28;20028;-68
2021/05/04 08:48:26;;;;;;;14.43;4.30;;;17.00;46.20;;;;;;5075391;28;20024;-68
2021/05/04 08:50:55;;;;;;;9.75;2.63;;;17.10;45.90;;;;;;5076828;28;20028;-69
2021/05/04 08:53:22;;;;;;;11.15;3.35;;;17.00;46.30;;;;;;5072792;28;20035;-68
2021/05/04 08:55:49;;;;;;;15.23;4.35;;;16.90;46.10;;;;;;5074887;28;20024;-68
2021/05/04 08:58:15;;;;;;;20.25;4.15;;;16.90;46.40;;;;;;5074516;28;20067;-68
2021/05/04 09:00:42;;;;;;;11.27;3.58;;;17.00;47.30;;;;;;5081225;28;20021;-68
2021/05/04 09:03:22;;;;;;;11.75;2.72;;;16.90;46.80;;;;;;5070242;28;20726;-68
2021/05/04 09:06:03;;;;;;;12.60;3.50;;;16.80;46.60;;;;;;5074410;28;20035;-68
2021/05/04 09:09:08;;;;;;;9.43;3.47;;;16.80;46.80;;;;;;5073779;28;20028;-69
2021/05/04 09:19:17;;;;;;;12.40;3.53;;;16.70;47.00;;;;;;5073646;28;20081;-69
2021/05/04 09:21:44;;;;;;;18.92;3.58;;;16.60;47.00;;;;;;5075123;28;20031;-69
2021/05/04 09:24:26;;;;;;;11.13;3.90;;;16.60;47.00;;;;;;5073130;28;20107;-69
2021/05/04 09:27:06;;;;;;;14.27;4.03;;;16.70;45.50;;;;;;5074053;28;20020;-69
2021/05/04 09:29:36;;;;;;;12.35;4.28;;;16.60;45.50;;;;;;5071488;28;20033;-69
2021/05/04 09:32:24;;;;;;;12.00;3.78;;;16.60;47.30;;;;;;5073069;28;20032;-69
2021/05/04 09:35:01;;;;;;;18.48;6.15;;;16.50;46.30;;;;;;5072952;28;20513;-69
2021/05/04 09:37:35;;;;;;;15.02;5.13;;;16.50;47.20;;;;;;5078372;28;20469;-69
2021/05/04 09:40:28;;;;;;;10.65;3.67;;;16.40;47.30;;;;;;5074194;28;20031;-69
2021/05/04 09:43:07;;;;;;;19.02;4.45;;;16.40;45.50;;;;;;5082462;28;20059;-69
2021/05/04 09:45:37;;;;;;;11.23;3.30;;;16.40;47.20;;;;;;5087827;28;20020;-69
2021/05/04 09:48:26;;;;;;;16.95;3.78;;;16.30;48.40;;;;;;5074558;28;20058;-69
2021/05/04 09:50:58;;;;;;;15.52;3.35;;;16.30;45.80;;;;;;5071971;28;20351;-69
2021/05/04 09:53:37;;;;;;;13.13;3.67;;;16.30;48.00;;;;;;5075725;28;20027;-69
2021/05/04 09:56:04;;;;;;;9.43;2.95;;;16.20;47.70;;;;;;5071653;28;20097;-69
2021/05/04 09:58:31;;;;;;;13.77;3.97;;;16.20;47.60;;;;;;5075016;28;20016;-69
2021/05/04 10:00:57;;;;;;;22.17;4.22;;;16.20;47.70;;;;;;5086492;28;20454;-69
2021/05/04 10:03:25;;;;;;;14.60;4.25;;;16.20;44.90;;;;;;5072824;28;20039;-69
2021/05/04 10:05:53;;;;;;;19.52;3.92;;;16.30;47.50;;;;;;5079146;28;20035;-69
2021/05/04 10:08:19;;;;;;;11.20;4.15;;;16.20;48.00;;;;;;5073381;28;20025;-69
2021/05/04 10:10:47;;;;;;;12.05;3.30;;;16.10;49.00;;;;;;5077263;28;20020;-69
2021/05/04 10:13:13;;;;;;;12.55;3.72;;;16.10;48.30;;;;;;5072709;28;20024;-69
2021/05/04 10:15:44;;;;;;;13.38;3.90;;;16.00;48.50;;;;;;5084873;28;20058;-69
2021/05/04 10:18:13;;;;;;;12.68;3.50;;;16.00;48.70;;;;;;5075061;28;20025;-69
2021/05/04 10:20:42;;;;;;;11.75;3.90;;;15.90;48.80;;;;;;5073966;28;20025;-69
2021/05/04 10:23:12;;;;;;;13.30;3.33;;;15.90;48.50;;;;;;5072781;28;20016;-69
2021/05/04 10:25:40;;;;;;;16.13;3.63;;;15.90;48.20;;;;;;5074123;28;20067;-69
2021/05/04 10:28:08;;;;;;;16.27;3.42;;;15.90;48.70;;;;;;5071548;28;20369;-69
2021/05/04 10:30:35;;;;;;;15.02;4.85;;;15.90;48.30;;;;;;5073103;28;20034;-69
2021/05/04 10:33:09;;;;;;;11.10;2.83;;;15.80;48.60;;;;;;5072941;28;20481;-69
2021/05/04 10:35:38;;;;;;;9.75;3.85;;;15.80;48.80;;;;;;5073358;28;20477;-69
2021/05/04 10:38:10;;;;;;;14.30;3.47;;;15.70;48.90;;;;;;5072512;28;20365;-69
2021/05/04 10:40:42;;;;;;;16.73;4.50;;;15.70;49.20;;;;;;5073723;28;20080;-69
2021/05/04 10:43:27;;;;;;;14.60;3.55;;;15.70;48.50;;;;;;5086608;28;20374;-69
2021/05/04 10:45:58;;;;;;;17.60;3.40;;;15.70;46.30;;;;;;5066864;28;20025;-69
2021/05/04 10:48:50;;;;;;;16.02;3.75;;;15.70;49.20;;;;;;5075647;28;20117;-69
2021/05/04 10:51:19;;;;;;;13.93;4.35;;;15.60;46.90;;;;;;5067044;28;20097;-70
2021/05/04 10:54:01;;;;;;;19.55;6.25;;;15.60;47.50;;;;;;5075438;28;20362;-70
2021/05/04 10:56:38;;;;;;;11.52;3.13;;;15.60;48.00;;;;;;5071062;28;20024;-70
2021/05/04 10:59:06;;;;;;;16.83;3.17;;;15.60;48.80;;;;;;5075015;28;20025;-69
2021/05/04 11:01:35;;;;;;;13.38;3.28;;;15.60;48.90;;;;;;5071058;28;20029;-69
2021/05/04 11:04:03;;;;;;;12.25;3.95;;;15.50;47.70;;;;;;5072140;28;20022;-69
2021/05/04 11:06:29;;;;;;;10.80;3.90;;;15.50;49.20;;;;;;5071492;28;20036;-69
2021/05/04 11:08:57;;;;;;;14.73;2.80;;;15.40;49.70;;;;;;5085270;28;20047;-69
2021/05/04 11:11:29;;;;;;;7.80;2.72;;;15.40;49.40;;;;;;5075025;28;20120;-69
2021/05/04 11:13:58;;;;;;;5.88;2.10;;;15.30;49.50;;;;;;5084631;28;20020;-69
2021/05/04 11:16:37;;;;;;;13.60;4.25;;;15.30;49.20;;;;;;5076986;28;20036;-69
2021/05/04 11:19:08;;;;;;;13.25;3.50;;;15.30;48.30;;;;;;5081745;28;20047;-69
2021/05/04 11:22:05;;;;;;;15.37;4.37;;;15.30;49.70;;;;;;5076396;28;20350;-69
2021/05/04 11:24:35;;;;;;;8.65;2.88;;;15.30;49.50;;;;;;5077433;28;20020;-69
2021/05/04 11:27:05;;;;;;;9.50;2.70;;;15.20;50.10;;;;;;5076286;28;20028;-69
2021/05/04 11:29:32;;;;;;;10.18;2.83;;;15.20;50.30;;;;;;5080158;28;20060;-69
2021/05/04 11:32:11;;;;;;;9.52;3.20;;;15.20;50.30;;;;;;5078761;28;20082;-69
2021/05/04 11:34:42;;;;;;;10.90;4.05;;;15.10;49.60;;;;;;5077553;28;20090;-69
2021/05/04 11:37:11;;;;;;;13.60;2.85;;;15.10;49.80;;;;;;5087755;28;20023;-69
2021/05/04 11:40:02;;;;;;;9.23;3.83;;;15.40;50.30;;;;;;5077703;28;20025;-69
2021/05/04 11:42:38;;;;;;;16.05;3.42;;;15.50;48.60;;;;;;5067711;28;20412;-69
2021/05/04 11:45:25;;;;;;;10.55;2.97;;;15.30;49.50;;;;;;5077629;28;20024;-69
2021/05/04 11:47:53;;;;;;;10.63;2.97;;;15.20;49.00;;;;;;5072186;28;20033;-69
2021/05/04 11:50:28;;;;;;;14.15;3.40;;;15.20;50.90;;;;;;5086330;28;20025;-69
2021/05/04 11:53:00;;;;;;;12.18;4.03;;;15.10;51.00;;;;;;5076082;28;20024;-69
2021/05/04 11:55:36;;;;;;;16.48;3.25;;;15.10;47.80;;;;;;5073998;28;20365;-69
2021/05/04 11:58:08;;;;;;;6.43;2.25;;;15.10;50.80;;;;;;5088730;28;20017;-69
2021/05/04 12:00:37;;;;;;;17.45;3.72;;;15.00;51.20;;;;;;5074192;28;20020;-69
2021/05/04 12:03:07;;;;;;;11.27;3.78;;;15.00;50.70;;;;;;5076210;28;20107;-70
2021/05/04 12:05:34;;;;;;;10.60;4.63;;;15.00;51.00;;;;;;5075988;28;20028;-70
2021/05/04 12:08:02;;;;;;;18.73;3.78;;;15.00;50.60;;;;;;5081887;28;20038;-70
2021/05/04 12:10:49;;;;;;;8.88;4.10;;;15.00;50.20;;;;;;5073288;28;20025;-69
2021/05/04 12:13:26;;;;;;;20.05;4.53;;;14.90;49.10;;;;;;5080617;28;20465;-69
2021/05/04 12:15:57;;;;;;;15.75;4.65;;;15.00;50.90;;;;;;5070543;28;20127;-69
2021/05/04 12:18:30;;;;;;;9.82;2.92;;;15.00;50.50;;;;;;5082094;28;20062;-69
2021/05/04 12:21:02;;;;;;;17.08;3.97;;;15.00;51.20;;;;;;5075377;28;20089;-69
2021/05/04 12:23:37;;;;;;;17.77;4.05;;;14.90;50.80;;;;;;5079277;28;20031;-69
2021/05/04 12:26:19;;;;;;;6.22;2.45;;;14.90;48.20;;;;;;5071087;28;20040;-69
2021/05/04 12:28:56;;;;;;;8.10;3.13;;;15.00;51.30;;;;;;5077848;28;20032;-69
2021/05/04 12:31:38;;;;;;;12.63;2.83;;;14.80;51.70;;;;;;5072235;28;20037;-69
2021/05/04 12:34:05;;;;;;;10.32;2.72;;;14.80;51.70;;;;;;5080108;28;20032;-69
2021/05/04 12:36:53;;;;;;;11.10;3.03;;;14.80;51.40;;;;;;5074202;28;20382;-69
2021/05/04 12:39:29;;;;;;;9.90;2.65;;;14.80;51.20;;;;;;5074202;28;20038;-69
2021/05/04 12:42:01;;;;;;;15.82;4.50;;;14.80;51.40;;;;;;5075105;28;20040;-69
2021/05/04 12:44:30;;;;;;;15.13;4.15;;;14.70;51.60;;;;;;5075597;28;20059;-69
2021/05/04 12:47:06;;;;;;;10.90;3.50;;;14.70;51.40;;;;;;5074089;28;20819;-69
2021/05/04 12:49:43;;;;;;;13.43;2.78;;;14.70;51.50;;;;;;5075494;28;20032;-70
2021/05/04 12:52:17;;;;;;;11.60;3.42;;;14.70;50.20;;;;;;5073628;28;20031;-69
2021/05/04 12:54:45;;;;;;;11.15;3.42;;;14.70;51.50;;;;;;5071472;28;20036;-69
2021/05/04 12:57:20;;;;;;;12.27;3.63;;;14.60;51.70;;;;;;5072930;28;20016;-69